NBL104 PHLI-PHTO
Flight info
| Callsign | NBL104 |
|---|---|
| Flight time | 0h 49m |
| Altitude | 35000 |
| Route | PHLI/03 N0452F350 DCT LIH V15 HNL V2 LNY V16 UPP V2 ITO DCT PHTO/26 |
| Aircraft | B738/M-SDE2E3FGHIRWXY/LB1 |
Departure
| Time | 2026-04-28 18:26 |
|---|---|
| Airport | Lihue Airport (PHLI) |
Arrival
| Time | 2026-04-28 19:15 |
|---|---|
| Airport | Hilo International Airport (PHTO) |
| Time | Latitude | Longitude | Altitude | Speed | Heading |
|---|---|---|---|---|---|
| 2026-04-28 18:17 | 21.97312 | -159.34865 | 140 ft | 0 kts | 45° |
| 2026-04-28 18:25 | 21.97312 | -159.34864 | 140 ft | 0 kts | 44° |
| 2026-04-28 18:25 | 21.97442 | -159.34727 | 134 ft | 70 kts | 44° |
| 2026-04-28 18:25 | 21.98006 | -159.34131 | 105 ft | 154 kts | 44° |
| 2026-04-28 18:26 | 21.99663 | -159.32033 | 1540 ft | 201 kts | 69° |
| 2026-04-28 18:26 | 21.99700 | -159.30451 | 2008 ft | 235 kts | 106° |
| 2026-04-28 18:26 | 21.98683 | -159.28928 | 2128 ft | 265 kts | 140° |
| 2026-04-28 18:26 | 21.96980 | -159.28219 | 1953 ft | 265 kts | 169° |
| 2026-04-28 18:27 | 21.95244 | -159.27688 | 1526 ft | 260 kts | 146° |
| 2026-04-28 18:27 | 21.94061 | -159.26279 | 1500 ft | 245 kts | 121° |
| 2026-04-28 18:27 | 21.93129 | -159.24826 | 1851 ft | 231 kts | 121° |
| 2026-04-28 18:27 | 21.92181 | -159.23358 | 1984 ft | 247 kts | 122° |
| 2026-04-28 18:28 | 21.91188 | -159.21812 | 2892 ft | 252 kts | 122° |
| 2026-04-28 18:28 | 21.90197 | -159.20263 | 3947 ft | 251 kts | 123° |
| 2026-04-28 18:28 | 21.89204 | -159.18706 | 4922 ft | 254 kts | 123° |
| 2026-04-28 18:28 | 21.88191 | -159.17106 | 5757 ft | 262 kts | 122° |
| 2026-04-28 18:29 | 21.87155 | -159.15482 | 6729 ft | 264 kts | 123° |
| 2026-04-28 18:29 | 21.86107 | -159.13834 | 7552 ft | 270 kts | 123° |
| 2026-04-28 18:29 | 21.85038 | -159.12148 | 8340 ft | 275 kts | 123° |
| 2026-04-28 18:29 | 21.83963 | -159.10452 | 9171 ft | 280 kts | 123° |
| 2026-04-28 18:30 | 21.82855 | -159.08705 | 9989 ft | 285 kts | 122° |
| 2026-04-28 18:30 | 21.82475 | -159.08105 | 10217 ft | 288 kts | 122° |
| 2026-04-28 18:30 | 21.80480 | -159.04957 | 10687 ft | 328 kts | 123° |
| 2026-04-28 18:30 | 21.79152 | -159.02856 | 11007 ft | 348 kts | 122° |
| 2026-04-28 18:31 | 21.77851 | -159.00611 | 11593 ft | 357 kts | 121° |
| 2026-04-28 18:31 | 21.76556 | -158.98282 | 12137 ft | 369 kts | 121° |
| 2026-04-28 18:31 | 21.75233 | -158.95912 | 12958 ft | 370 kts | 121° |
| 2026-04-28 18:31 | 21.73893 | -158.93522 | 13624 ft | 376 kts | 122° |
| 2026-04-28 18:32 | 21.72526 | -158.91105 | 14291 ft | 380 kts | 122° |
| 2026-04-28 18:32 | 21.71138 | -158.88658 | 14910 ft | 385 kts | 122° |
| 2026-04-28 18:32 | 21.69733 | -158.86183 | 15515 ft | 390 kts | 122° |
| 2026-04-28 18:32 | 21.68313 | -158.83682 | 16178 ft | 394 kts | 122° |
| 2026-04-28 18:33 | 21.66879 | -158.81157 | 16787 ft | 399 kts | 122° |
| 2026-04-28 18:33 | 21.65422 | -158.78591 | 17378 ft | 404 kts | 122° |
| 2026-04-28 18:33 | 21.63949 | -158.75996 | 17971 ft | 410 kts | 122° |
| 2026-04-28 18:33 | 21.62454 | -158.73365 | 18529 ft | 415 kts | 122° |
| 2026-04-28 18:34 | 21.60963 | -158.70742 | 19014 ft | 420 kts | 122° |
| 2026-04-28 18:34 | 21.59432 | -158.68048 | 19505 ft | 425 kts | 122° |
| 2026-04-28 18:34 | 21.57881 | -158.65322 | 20002 ft | 430 kts | 122° |
| 2026-04-28 18:34 | 21.56313 | -158.62566 | 20488 ft | 435 kts | 121° |
| 2026-04-28 18:35 | 21.54721 | -158.59769 | 20990 ft | 440 kts | 121° |
| 2026-04-28 18:35 | 21.53115 | -158.56951 | 21471 ft | 445 kts | 121° |
| 2026-04-28 18:35 | 21.51490 | -158.54098 | 21938 ft | 450 kts | 121° |
| 2026-04-28 18:35 | 21.49848 | -158.51218 | 22460 ft | 453 kts | 121° |
| 2026-04-28 18:36 | 21.48194 | -158.48320 | 22996 ft | 456 kts | 121° |
| 2026-04-28 18:36 | 21.46526 | -158.45398 | 23397 ft | 462 kts | 121° |
| 2026-04-28 18:36 | 21.44832 | -158.42432 | 23771 ft | 467 kts | 121° |
| 2026-04-28 18:36 | 21.43128 | -158.39449 | 24199 ft | 470 kts | 121° |
| 2026-04-28 18:37 | 21.41417 | -158.36455 | 24668 ft | 471 kts | 121° |
| 2026-04-28 18:37 | 21.39698 | -158.33447 | 25108 ft | 473 kts | 121° |
| 2026-04-28 18:37 | 21.37972 | -158.30428 | 25530 ft | 476 kts | 121° |
| 2026-04-28 18:37 | 21.36238 | -158.27394 | 25946 ft | 479 kts | 122° |
| 2026-04-28 18:38 | 21.34490 | -158.24340 | 26341 ft | 482 kts | 122° |
| 2026-04-28 18:38 | 21.32755 | -158.21255 | 26728 ft | 484 kts | 118° |
| 2026-04-28 18:38 | 21.31414 | -158.17934 | 27121 ft | 486 kts | 107° |
| 2026-04-28 18:38 | 21.30617 | -158.14424 | 27608 ft | 485 kts | 98° |
| 2026-04-28 18:39 | 21.30343 | -158.10869 | 27940 ft | 486 kts | 87° |
| 2026-04-28 18:39 | 21.30459 | -158.07231 | 28236 ft | 489 kts | 85° |
| 2026-04-28 18:39 | 21.30608 | -158.03566 | 28530 ft | 493 kts | 86° |
| 2026-04-28 18:39 | 21.30706 | -157.99883 | 28891 ft | 495 kts | 87° |
| 2026-04-28 18:40 | 21.30575 | -157.96194 | 29348 ft | 496 kts | 97° |
| 2026-04-28 18:40 | 21.29860 | -157.92577 | 29852 ft | 495 kts | 107° |
| 2026-04-28 18:40 | 21.28666 | -157.89125 | 30328 ft | 493 kts | 116° |
| 2026-04-28 18:40 | 21.27044 | -157.85895 | 30774 ft | 489 kts | 122° |
| 2026-04-28 18:41 | 21.25272 | -157.82774 | 31081 ft | 490 kts | 123° |
| 2026-04-28 18:41 | 21.21652 | -157.76591 | 31076 ft | 491 kts | 123° |
| 2026-04-28 18:42 | 21.18117 | -157.70396 | 31068 ft | 485 kts | 122° |
| 2026-04-28 18:42 | 21.14633 | -157.64184 | 31069 ft | 487 kts | 122° |
| 2026-04-28 18:43 | 21.11130 | -157.57942 | 31054 ft | 489 kts | 122° |
| 2026-04-28 18:43 | 21.07606 | -157.51715 | 31058 ft | 489 kts | 123° |
| 2026-04-28 18:44 | 21.04064 | -157.45490 | 31046 ft | 488 kts | 123° |
| 2026-04-28 18:44 | 20.98779 | -157.36195 | 31039 ft | 485 kts | 123° |
| 2026-04-28 18:45 | 20.95318 | -157.30066 | 31045 ft | 484 kts | 123° |
| 2026-04-28 18:45 | 20.91854 | -157.23905 | 31047 ft | 482 kts | 123° |
| 2026-04-28 18:46 | 20.88356 | -157.17787 | 31050 ft | 482 kts | 124° |
| 2026-04-28 18:46 | 20.84854 | -157.11675 | 31046 ft | 482 kts | 124° |
| 2026-04-28 18:47 | 20.81379 | -157.05536 | 31042 ft | 482 kts | 123° |
| 2026-04-28 18:47 | 20.77909 | -156.99389 | 31052 ft | 483 kts | 123° |
| 2026-04-28 18:48 | 20.74537 | -156.93224 | 31046 ft | 485 kts | 120° |
| 2026-04-28 18:48 | 20.71414 | -156.86831 | 31059 ft | 485 kts | 120° |
| 2026-04-28 18:49 | 20.69298 | -156.82567 | 31052 ft | 486 kts | 120° |
| 2026-04-28 18:49 | 20.65065 | -156.74092 | 31052 ft | 485 kts | 120° |
| 2026-04-28 18:50 | 20.61920 | -156.67724 | 31040 ft | 481 kts | 120° |
| 2026-04-28 18:50 | 20.58856 | -156.61530 | 31031 ft | 459 kts | 120° |
| 2026-04-28 18:51 | 20.55982 | -156.55733 | 31028 ft | 432 kts | 120° |
| 2026-04-28 18:51 | 20.54597 | -156.52944 | 31036 ft | 418 kts | 120° |
| 2026-04-28 18:51 | 20.53252 | -156.50238 | 31036 ft | 406 kts | 121° |
| 2026-04-28 18:52 | 20.51948 | -156.47619 | 31040 ft | 394 kts | 121° |
| 2026-04-28 18:52 | 20.51092 | -156.45897 | 31036 ft | 386 kts | 121° |
| 2026-04-28 18:52 | 20.48609 | -156.40917 | 31061 ft | 385 kts | 121° |
| 2026-04-28 18:53 | 20.46045 | -156.35811 | 31062 ft | 393 kts | 121° |
| 2026-04-28 18:53 | 20.43478 | -156.30697 | 31038 ft | 388 kts | 121° |
| 2026-04-28 18:54 | 20.42215 | -156.28178 | 30888 ft | 383 kts | 121° |
| 2026-04-28 18:54 | 20.40958 | -156.25675 | 30531 ft | 383 kts | 121° |
| 2026-04-28 18:54 | 20.39695 | -156.23162 | 30171 ft | 384 kts | 121° |
| 2026-04-28 18:54 | 20.38435 | -156.20656 | 29835 ft | 382 kts | 121° |
| 2026-04-28 18:55 | 20.37185 | -156.18171 | 29499 ft | 379 kts | 121° |
| 2026-04-28 18:55 | 20.35945 | -156.15706 | 29164 ft | 376 kts | 121° |
| 2026-04-28 18:55 | 20.34712 | -156.13256 | 28827 ft | 374 kts | 121° |
| 2026-04-28 18:55 | 20.33486 | -156.10821 | 28497 ft | 372 kts | 121° |
| 2026-04-28 18:56 | 20.32266 | -156.08399 | 28165 ft | 369 kts | 120° |
| 2026-04-28 18:56 | 20.31056 | -156.05997 | 27848 ft | 367 kts | 120° |
| 2026-04-28 18:56 | 20.29852 | -156.03610 | 27532 ft | 365 kts | 120° |
| 2026-04-28 18:56 | 20.28655 | -156.01236 | 27221 ft | 362 kts | 120° |
| 2026-04-28 18:57 | 20.27465 | -155.98879 | 26923 ft | 360 kts | 120° |
| 2026-04-28 18:57 | 20.26285 | -155.96540 | 26622 ft | 358 kts | 120° |
| 2026-04-28 18:57 | 20.25108 | -155.94209 | 26327 ft | 355 kts | 120° |
| 2026-04-28 18:57 | 20.23941 | -155.91898 | 26047 ft | 353 kts | 120° |
| 2026-04-28 18:58 | 20.22784 | -155.89610 | 25784 ft | 350 kts | 120° |
| 2026-04-28 18:58 | 20.21634 | -155.87335 | 25500 ft | 348 kts | 120° |
| 2026-04-28 18:58 | 20.20595 | -155.85010 | 25208 ft | 348 kts | 109° |
| 2026-04-28 18:58 | 20.19995 | -155.82524 | 24923 ft | 346 kts | 97° |
| 2026-04-28 18:59 | 20.19790 | -155.79997 | 24447 ft | 351 kts | 92° |
| 2026-04-28 18:59 | 20.19673 | -155.77373 | 23900 ft | 359 kts | 91° |
| 2026-04-28 18:59 | 20.19564 | -155.74657 | 23308 ft | 366 kts | 91° |
| 2026-04-28 18:59 | 20.19445 | -155.71929 | 22673 ft | 372 kts | 91° |
| 2026-04-28 19:00 | 20.19315 | -155.69185 | 22015 ft | 379 kts | 91° |
| 2026-04-28 19:00 | 20.19173 | -155.66352 | 21273 ft | 388 kts | 92° |
| 2026-04-28 19:00 | 20.19021 | -155.63455 | 20551 ft | 395 kts | 92° |
| 2026-04-28 19:00 | 20.18865 | -155.60513 | 19849 ft | 401 kts | 92° |
| 2026-04-28 19:01 | 20.18709 | -155.57530 | 19164 ft | 406 kts | 92° |
| 2026-04-28 19:01 | 20.18555 | -155.54512 | 18487 ft | 409 kts | 92° |
| 2026-04-28 19:01 | 20.18401 | -155.51472 | 17733 ft | 412 kts | 92° |
| 2026-04-28 19:01 | 20.18246 | -155.48417 | 16979 ft | 414 kts | 92° |
| 2026-04-28 19:02 | 20.18090 | -155.45350 | 16247 ft | 415 kts | 92° |
| 2026-04-28 19:02 | 20.17933 | -155.42274 | 15524 ft | 416 kts | 92° |
| 2026-04-28 19:02 | 20.17774 | -155.39200 | 14815 ft | 416 kts | 92° |
| 2026-04-28 19:02 | 20.17619 | -155.36165 | 14132 ft | 415 kts | 92° |
| 2026-04-28 19:03 | 20.17462 | -155.33096 | 13385 ft | 414 kts | 92° |
| 2026-04-28 19:03 | 20.17305 | -155.30048 | 12614 ft | 406 kts | 92° |
| 2026-04-28 19:03 | 20.17152 | -155.27086 | 11887 ft | 395 kts | 92° |
| 2026-04-28 19:03 | 20.16882 | -155.24222 | 11136 ft | 385 kts | 103° |
| 2026-04-28 19:04 | 20.15801 | -155.21666 | 10429 ft | 375 kts | 124° |
| 2026-04-28 19:04 | 20.14089 | -155.19634 | 9699 ft | 364 kts | 140° |
| 2026-04-28 19:04 | 20.12154 | -155.17947 | 8947 ft | 355 kts | 141° |
| 2026-04-28 19:04 | 20.10243 | -155.16326 | 8189 ft | 347 kts | 141° |
| 2026-04-28 19:05 | 20.08372 | -155.14743 | 7459 ft | 340 kts | 141° |
| 2026-04-28 19:05 | 20.06560 | -155.13203 | 7057 ft | 325 kts | 140° |
| 2026-04-28 19:05 | 20.04844 | -155.11736 | 6842 ft | 306 kts | 140° |
| 2026-04-28 19:05 | 20.03226 | -155.10352 | 6641 ft | 293 kts | 140° |
| 2026-04-28 19:06 | 20.01663 | -155.09010 | 6378 ft | 284 kts | 140° |
| 2026-04-28 19:06 | 20.00660 | -155.08143 | 6221 ft | 276 kts | 139° |
| 2026-04-28 19:06 | 19.98757 | -155.06495 | 5991 ft | 260 kts | 139° |
| 2026-04-28 19:06 | 19.97371 | -155.05296 | 5827 ft | 254 kts | 139° |
| 2026-04-28 19:07 | 19.96018 | -155.04125 | 5661 ft | 248 kts | 139° |
| 2026-04-28 19:07 | 19.94696 | -155.02982 | 5488 ft | 242 kts | 139° |
| 2026-04-28 19:07 | 19.93403 | -155.01864 | 5330 ft | 236 kts | 139° |
| 2026-04-28 19:07 | 19.92140 | -155.00771 | 5177 ft | 232 kts | 140° |
| 2026-04-28 19:08 | 19.90899 | -154.99698 | 5025 ft | 229 kts | 140° |
| 2026-04-28 19:08 | 19.89666 | -154.98632 | 4850 ft | 227 kts | 140° |
| 2026-04-28 19:08 | 19.88455 | -154.97585 | 4681 ft | 223 kts | 140° |
| 2026-04-28 19:08 | 19.87260 | -154.96554 | 4507 ft | 220 kts | 138° |
| 2026-04-28 19:09 | 19.86072 | -154.95527 | 4360 ft | 221 kts | 139° |
| 2026-04-28 19:09 | 19.84870 | -154.94488 | 4214 ft | 224 kts | 138° |
| 2026-04-28 19:09 | 19.83665 | -154.93449 | 4046 ft | 222 kts | 137° |
| 2026-04-28 19:09 | 19.82470 | -154.92416 | 3891 ft | 221 kts | 139° |
| 2026-04-28 19:10 | 19.81280 | -154.91389 | 3735 ft | 221 kts | 139° |
| 2026-04-28 19:10 | 19.80092 | -154.90365 | 3619 ft | 219 kts | 137° |
| 2026-04-28 19:10 | 19.78897 | -154.89336 | 3484 ft | 224 kts | 139° |
| 2026-04-28 19:10 | 19.77679 | -154.88289 | 3346 ft | 225 kts | 138° |
| 2026-04-28 19:11 | 19.76460 | -154.87303 | 3199 ft | 223 kts | 147° |
| 2026-04-28 19:11 | 19.74991 | -154.86911 | 3009 ft | 218 kts | 181° |
| 2026-04-28 19:11 | 19.73563 | -154.87394 | 2567 ft | 221 kts | 212° |
| 2026-04-28 19:11 | 19.72705 | -154.88629 | 2328 ft | 201 kts | 251° |
| 2026-04-28 19:12 | 19.72336 | -154.89974 | 2103 ft | 179 kts | 256° |
| 2026-04-28 19:12 | 19.72200 | -154.91214 | 1959 ft | 163 kts | 266° |
| 2026-04-28 19:12 | 19.72158 | -154.92430 | 1770 ft | 164 kts | 269° |
| 2026-04-28 19:12 | 19.72143 | -154.93642 | 1570 ft | 166 kts | 269° |
| 2026-04-28 19:13 | 19.72137 | -154.94854 | 1369 ft | 163 kts | 271° |
| 2026-04-28 19:13 | 19.72135 | -154.96079 | 1212 ft | 166 kts | 270° |
| 2026-04-28 19:13 | 19.72135 | -154.97321 | 1013 ft | 170 kts | 270° |
| 2026-04-28 19:13 | 19.72133 | -154.98575 | 816 ft | 169 kts | 270° |
| 2026-04-28 19:14 | 19.72132 | -154.99798 | 621 ft | 166 kts | 270° |
| 2026-04-28 19:14 | 19.72133 | -155.01012 | 437 ft | 163 kts | 271° |
| 2026-04-28 19:14 | 19.72136 | -155.02214 | 226 ft | 163 kts | 273° |
| 2026-04-28 19:14 | 19.72142 | -155.03386 | 56 ft | 147 kts | 271° |
| 2026-04-28 19:15 | 19.72139 | -155.04360 | 37 ft | 112 kts | 277° |
| 2026-04-28 19:15 | 19.72142 | -155.04845 | 35 ft | 18 kts | 274° |
| 2026-04-28 19:15 | 19.72052 | -155.04915 | 36 ft | 17 kts | 171° |
| 2026-04-28 19:15 | 19.72017 | -155.04853 | 36 ft | 16 kts | 92° |
| 2026-04-28 19:16 | 19.72017 | -155.04714 | 36 ft | 2 kts | 91° |